N42J KORF-KRDU
Flight info
| Callsign | N42J |
|---|---|
| Flight time | N/A |
| Altitude | 8000 |
| Route | KORF/05 N0276F220 DCT COUPN DCT DUWON DCT DINTS DCT DOCAT DCT APUCU DCT LEPEC DCT KRDU/23L |
| Aircraft | PC12/L-V/N |
Departure
| Time | 2026-04-23 20:46 |
|---|---|
| Airport | Norfolk International Airport (KORF) |
Arrival
| Time | N/A |
|---|---|
| Airport | Raleigh-Durham International Airport (KRDU) |
| Time | Latitude | Longitude | Altitude | Speed | Heading |
|---|---|---|---|---|---|
| 2026-04-23 20:39 | 36.88744 | -76.20046 | 22 ft | 0 kts | 128° |
| 2026-04-23 20:43 | 36.88743 | -76.20023 | 22 ft | 6 kts | 48° |
| 2026-04-23 20:43 | 36.88796 | -76.20070 | 22 ft | 14 kts | 318° |
| 2026-04-23 20:43 | 36.88841 | -76.20205 | 22 ft | 19 kts | 290° |
| 2026-04-23 20:43 | 36.88859 | -76.20368 | 22 ft | 18 kts | 227° |
| 2026-04-23 20:44 | 36.88742 | -76.20483 | 21 ft | 25 kts | 217° |
| 2026-04-23 20:44 | 36.88588 | -76.20630 | 18 ft | 21 kts | 213° |
| 2026-04-23 20:44 | 36.88556 | -76.20733 | 17 ft | 0 kts | 297° |
| 2026-04-23 20:44 | 36.88557 | -76.20736 | 16 ft | 3 kts | 297° |
| 2026-04-23 20:45 | 36.88594 | -76.20802 | 16 ft | 13 kts | 341° |
| 2026-04-23 20:45 | 36.88689 | -76.20731 | 18 ft | 26 kts | 39° |
| 2026-04-23 20:45 | 36.89056 | -76.20379 | 22 ft | 100 kts | 39° |
| 2026-04-23 20:45 | 36.89681 | -76.19769 | 220 ft | 121 kts | 44° |
| 2026-04-23 20:46 | 36.90357 | -76.19021 | 583 ft | 136 kts | 40° |
| 2026-04-23 20:46 | 36.91123 | -76.18233 | 1018 ft | 146 kts | 34° |
| 2026-04-23 20:46 | 36.92032 | -76.17650 | 1417 ft | 154 kts | 5° |
| 2026-04-23 20:46 | 36.93053 | -76.17989 | 1778 ft | 161 kts | 323° |
| 2026-04-23 20:47 | 36.93631 | -76.19191 | 2114 ft | 172 kts | 281° |
| 2026-04-23 20:47 | 36.93366 | -76.20676 | 2446 ft | 185 kts | 240° |
| 2026-04-23 20:47 | 36.92518 | -76.21915 | 2791 ft | 192 kts | 231° |
| 2026-04-23 20:47 | 36.91577 | -76.23149 | 3131 ft | 197 kts | 231° |
| 2026-04-23 20:48 | 36.90615 | -76.24401 | 3466 ft | 201 kts | 230° |
| 2026-04-23 20:48 | 36.89641 | -76.25678 | 3801 ft | 204 kts | 232° |
| 2026-04-23 20:48 | 36.88767 | -76.27069 | 4142 ft | 204 kts | 239° |
| 2026-04-23 20:48 | 36.88030 | -76.28572 | 4474 ft | 205 kts | 245° |
| 2026-04-23 20:49 | 36.87388 | -76.30172 | 4798 ft | 206 kts | 249° |
| 2026-04-23 20:49 | 36.86826 | -76.31820 | 5126 ft | 207 kts | 252° |
| 2026-04-23 20:49 | 36.86324 | -76.33491 | 5451 ft | 208 kts | 254° |
| 2026-04-23 20:49 | 36.85857 | -76.35204 | 5776 ft | 209 kts | 256° |
| 2026-04-23 20:50 | 36.85416 | -76.36941 | 6103 ft | 210 kts | 257° |
| 2026-04-23 20:50 | 36.84994 | -76.38697 | 6430 ft | 211 kts | 257° |
| 2026-04-23 20:50 | 36.84591 | -76.40447 | 6752 ft | 211 kts | 258° |
| 2026-04-23 20:50 | 36.84194 | -76.42208 | 7072 ft | 212 kts | 258° |
| 2026-04-23 20:51 | 36.83801 | -76.43986 | 7398 ft | 213 kts | 258° |
| 2026-04-23 20:51 | 36.83416 | -76.45752 | 7720 ft | 213 kts | 258° |
| 2026-04-23 20:51 | 36.83027 | -76.47558 | 7886 ft | 221 kts | 259° |
| 2026-04-23 20:51 | 36.82626 | -76.49456 | 7909 ft | 233 kts | 259° |
| 2026-04-23 20:52 | 36.82207 | -76.51460 | 7911 ft | 242 kts | 259° |
| 2026-04-23 20:52 | 36.81791 | -76.53532 | 7908 ft | 250 kts | 259° |
| 2026-04-23 20:52 | 36.81369 | -76.55647 | 7909 ft | 255 kts | 259° |
| 2026-04-23 20:52 | 36.80934 | -76.57826 | 7903 ft | 259 kts | 259° |
| 2026-04-23 20:53 | 36.80490 | -76.60028 | 7905 ft | 262 kts | 259° |
| 2026-04-23 20:53 | 36.80044 | -76.62237 | 7908 ft | 264 kts | 259° |
| 2026-04-23 20:53 | 36.79590 | -76.64471 | 7905 ft | 265 kts | 259° |
| 2026-04-23 20:53 | 36.79133 | -76.66690 | 7907 ft | 266 kts | 258° |
| 2026-04-23 20:54 | 36.78662 | -76.68940 | 7905 ft | 267 kts | 258° |
| 2026-04-23 20:54 | 36.78194 | -76.71166 | 7902 ft | 268 kts | 258° |
| 2026-04-23 20:54 | 36.77718 | -76.73408 | 7906 ft | 268 kts | 258° |
| 2026-04-23 20:54 | 36.77238 | -76.75668 | 7906 ft | 269 kts | 258° |
| 2026-04-23 20:55 | 36.76752 | -76.77937 | 7900 ft | 270 kts | 258° |
| 2026-04-23 20:55 | 36.76271 | -76.80181 | 7894 ft | 270 kts | 258° |
| 2026-04-23 20:55 | 36.75785 | -76.82436 | 7893 ft | 270 kts | 258° |
| 2026-04-23 20:55 | 36.75297 | -76.84699 | 7892 ft | 270 kts | 258° |
| 2026-04-23 20:56 | 36.74805 | -76.86969 | 7891 ft | 271 kts | 258° |
| 2026-04-23 20:56 | 36.74316 | -76.89225 | 7891 ft | 271 kts | 258° |
| 2026-04-23 20:56 | 36.73827 | -76.91492 | 7890 ft | 271 kts | 258° |
| 2026-04-23 20:56 | 36.73335 | -76.93767 | 7886 ft | 271 kts | 258° |
| 2026-04-23 20:57 | 36.72848 | -76.96018 | 7887 ft | 271 kts | 258° |
| 2026-04-23 20:57 | 36.72357 | -76.98289 | 7891 ft | 271 kts | 258° |
| 2026-04-23 20:57 | 36.71867 | -77.00552 | 7879 ft | 271 kts | 258° |
| 2026-04-23 20:57 | 36.71176 | -77.02740 | 7876 ft | 273 kts | 246° |
| 2026-04-23 20:58 | 36.70279 | -77.04801 | 7890 ft | 273 kts | 245° |
| 2026-04-23 20:58 | 36.69383 | -77.06907 | 7892 ft | 273 kts | 246° |
| 2026-04-23 20:58 | 36.68498 | -77.09006 | 7890 ft | 273 kts | 246° |
| 2026-04-23 20:58 | 36.67623 | -77.11079 | 7885 ft | 273 kts | 246° |
| 2026-04-23 20:59 | 36.66735 | -77.13191 | 7886 ft | 273 kts | 246° |
| 2026-04-23 20:59 | 36.65861 | -77.15271 | 7879 ft | 273 kts | 246° |
| 2026-04-23 20:59 | 36.64976 | -77.17379 | 7879 ft | 273 kts | 246° |
| 2026-04-23 20:59 | 36.64104 | -77.19451 | 7873 ft | 274 kts | 246° |
| 2026-04-23 21:00 | 36.63221 | -77.21546 | 7879 ft | 274 kts | 246° |
| 2026-04-23 21:00 | 36.62329 | -77.23658 | 7885 ft | 274 kts | 246° |
| 2026-04-23 21:00 | 36.61446 | -77.25762 | 7885 ft | 274 kts | 246° |
| 2026-04-23 21:00 | 36.60566 | -77.27859 | 7887 ft | 274 kts | 246° |
| 2026-04-23 21:01 | 36.59692 | -77.29941 | 7885 ft | 274 kts | 246° |
| 2026-04-23 21:01 | 36.58808 | -77.32040 | 7889 ft | 273 kts | 246° |
| 2026-04-23 21:01 | 36.57920 | -77.34148 | 7891 ft | 273 kts | 246° |
| 2026-04-23 21:01 | 36.57035 | -77.36243 | 7889 ft | 273 kts | 246° |
| 2026-04-23 21:02 | 36.56455 | -77.37614 | 7892 ft | 273 kts | 246° |
| 2026-04-23 21:02 | 36.55276 | -77.40396 | 7892 ft | 273 kts | 246° |
| 2026-04-23 21:02 | 36.54395 | -77.42477 | 7893 ft | 273 kts | 246° |
| 2026-04-23 21:02 | 36.53498 | -77.44594 | 7895 ft | 273 kts | 246° |
| 2026-04-23 21:03 | 36.52623 | -77.46662 | 7902 ft | 273 kts | 246° |
| 2026-04-23 21:03 | 36.51745 | -77.48734 | 7904 ft | 272 kts | 246° |
| 2026-04-23 21:03 | 36.50851 | -77.50843 | 7905 ft | 272 kts | 246° |
| 2026-04-23 21:03 | 36.49977 | -77.52900 | 7907 ft | 272 kts | 246° |
| 2026-04-23 21:04 | 36.49095 | -77.54977 | 7906 ft | 272 kts | 246° |
| 2026-04-23 21:04 | 36.48209 | -77.57058 | 7905 ft | 272 kts | 246° |
| 2026-04-23 21:04 | 36.47324 | -77.59139 | 7900 ft | 272 kts | 246° |
| 2026-04-23 21:04 | 36.46435 | -77.61227 | 7907 ft | 272 kts | 246° |
| 2026-04-23 21:05 | 36.45564 | -77.63271 | 7909 ft | 272 kts | 246° |
| 2026-04-23 21:05 | 36.44675 | -77.65352 | 7908 ft | 272 kts | 246° |
| 2026-04-23 21:05 | 36.43780 | -77.67449 | 7912 ft | 272 kts | 246° |
| 2026-04-23 21:05 | 36.42896 | -77.69527 | 7833 ft | 272 kts | 246° |
| 2026-04-23 21:06 | 36.42087 | -77.71564 | 7609 ft | 263 kts | 248° |
| 2026-04-23 21:06 | 36.41285 | -77.73582 | 7389 ft | 256 kts | 247° |
| 2026-04-23 21:06 | 36.40474 | -77.75499 | 7176 ft | 250 kts | 246° |
| 2026-04-23 21:06 | 36.39659 | -77.77380 | 6967 ft | 246 kts | 246° |
| 2026-04-23 21:07 | 36.38846 | -77.79243 | 6754 ft | 243 kts | 246° |
| 2026-04-23 21:07 | 36.38042 | -77.81081 | 6542 ft | 240 kts | 246° |
| 2026-04-23 21:07 | 36.37254 | -77.82884 | 6335 ft | 238 kts | 246° |
| 2026-04-23 21:07 | 36.36475 | -77.84672 | 6128 ft | 236 kts | 246° |
| 2026-04-23 21:08 | 36.35692 | -77.86472 | 5923 ft | 235 kts | 246° |
| 2026-04-23 21:08 | 36.34916 | -77.88261 | 5714 ft | 234 kts | 246° |
| 2026-04-23 21:08 | 36.34153 | -77.90022 | 5504 ft | 233 kts | 246° |
| 2026-04-23 21:08 | 36.33393 | -77.91785 | 5296 ft | 233 kts | 246° |
| 2026-04-23 21:09 | 36.32628 | -77.93556 | 5089 ft | 232 kts | 246° |
| 2026-04-23 21:09 | 36.31861 | -77.95324 | 4971 ft | 232 kts | 245° |
| 2026-04-23 21:09 | 36.31065 | -77.97070 | 4955 ft | 236 kts | 244° |
| 2026-04-23 21:09 | 36.30264 | -77.98867 | 4953 ft | 238 kts | 245° |
| 2026-04-23 21:10 | 36.29479 | -78.00668 | 4953 ft | 240 kts | 246° |
| 2026-04-23 21:10 | 36.28688 | -78.02497 | 4953 ft | 241 kts | 246° |
| 2026-04-23 21:10 | 36.27893 | -78.04342 | 4948 ft | 242 kts | 246° |
| 2026-04-23 21:10 | 36.27100 | -78.06185 | 4944 ft | 243 kts | 246° |
| 2026-04-23 21:11 | 36.26315 | -78.08013 | 4940 ft | 244 kts | 246° |